Richland, Georgia
Current Conditions -  °F | °C
As of 4:52 AM on Saturday 20 Dec 2014 (Local Time) from KLSF Reporting Station
Light Rain Light Rain  
Wind Chill: 46°   Ceiling: 4100
Heat Index: 46°   Visibility: 10mi
Dew Point: 45°   Wind: 3mph
Humidity: 93%   Direction: 180°S
Pressure: 30.12"   Gusts: NA
Location:  32.09°N, 84.67°W
Report Text: KLSF 200952Z AUTO 18003KT 10SM -RA OVC041 08/07 A3012 RMK AO2 RAB0952
Loading
Personal Weather Stations






























Interactive Weather Map New forecast layout! Learn more

10-Day Weather Forecast

Advertisements
Track Severe Weather on mobile